CZUM

Details ICAO CZUM (ZUM)
Name CHURCHILL FALLS
Region Canada
Timezone America/Goose_Bay (UTC-4.0)
Plans Departing 8
Arriving 7
Stats Elevation 1,442 ft / 440 m (AMSL)
Location 53.562625° -64.105935°
Runways 1
Magnetic Variation 20.786° W
Sunrise 2017-12-14 12:27:22 UTC / 2017-12-14 08:27:22 Local
Sunset 2017-12-14 19:57:48 UTC / 2017-12-14 15:57:48 Local
Advertisement - Login to hide

Runways

ID Width Length Bearing (true) Bearing (mag) Surface Threshold Offset Overrun Length
13 150 ft / 46 m 5,484 ft / 1,671 m 104.57° 125.36° Asphalt 0 ft / 0 m 0 ft / 0 m
31 150 ft / 46 m 5,484 ft / 1,671 m 284.59° 305.38° Asphalt 0 ft / 0 m 0 ft / 0 m

Map

Weather


0- 5 10 15 20 25 30 35+ Temperature / ° C

Clouds and Precipitation
Forecast for 2017-12-14 12:00 UTC. Updated 2 hours ago

Ground ~20,000 ft ~40,000 ft Winds

METAR

CZUM 141200Z AUTO 13006KT 9SM OVC040 M00/M01 A2856 RMK SLP697 DENSITY ALT 1500FT

TAF

TAF AMD CZUM 140959Z 1409/1420 11012G22KT 2SM BR OVC004 TEMPO 1409/1412 P6SM NSW SCT004 OVC025 FM141200 14010KT P6SM BKN025 FM141800 20012G22KT P6SM BKN025 TEMPO 1418/1420 3SM -SN BKN020 RMK FCST BASED ON AUTO OBS. NXT FCST BY 141400Z

Frequencies

Recorded 122.55 MHz AWOS
Unicom 123.50 MHz CTAF
Warning: Do not use this data for real-world aviation or navigation. No guarantee of current accuracy is given.